Appleton, Idaho
Current Conditions -  °F | °C
As of 8:53 PM on Friday 24 Oct 2014 (Local Time) from KJER Reporting Station
Clear Clear  
Wind Chill: 61°   Ceiling: Unl
Heat Index: 61°   Visibility: 10mi
Dew Point: 27°   Wind: 16mph
Humidity: 27%   Direction: 50°NE
Pressure: 30.01"   Gusts: NA
Location:  42.7238°N, 114.338°W
Report Text: KJER 250253Z AUTO 05014KT 10SM CLR 16/M03 A3001 RMK AO2 SLP143 T01611028 56003
Loading
Personal Weather Stations






























Interactive Weather Map New forecast layout! Learn more

10-Day Weather Forecast

Advertisements
Track Severe Weather on mobile